sensor_id;sensor_type;location;lat;lon;timestamp;temperature;humidity
3790;DHT22;1910;49.042;9.028;2023-04-25T00:03:20;7.90;99.90
3790;DHT22;1910;49.042;9.028;2023-04-25T00:08:13;8.00;99.90
3790;DHT22;1910;49.042;9.028;2023-04-25T00:10:38;8.00;99.90
3790;DHT22;1910;49.042;9.028;2023-04-25T00:15:30;8.00;99.90
3790;DHT22;1910;49.042;9.028;2023-04-25T00:17:56;8.10;99.90
3790;DHT22;1910;49.042;9.028;2023-04-25T00:22:49;8.20;99.90
3790;DHT22;1910;49.042;9.028;2023-04-25T00:25:17;8.10;99.90
3790;DHT22;1910;49.042;9.028;2023-04-25T00:30:09;8.10;99.90
3790;DHT22;1910;49.042;9.028;2023-04-25T00:32:35;8.00;99.90
3790;DHT22;1910;49.042;9.028;2023-04-25T00:35:01;8.00;99.90
3790;DHT22;1910;49.042;9.028;2023-04-25T00:37:26;7.90;99.90
3790;DHT22;1910;49.042;9.028;2023-04-25T00:42:21;7.90;99.90
3790;DHT22;1910;49.042;9.028;2023-04-25T00:44:47;7.90;99.90
3790;DHT22;1910;49.042;9.028;2023-04-25T00:47:13;8.00;99.90
3790;DHT22;1910;49.042;9.028;2023-04-25T00:54:31;8.00;99.90
3790;DHT22;1910;49.042;9.028;2023-04-25T00:59:23;8.00;99.90
3790;DHT22;1910;49.042;9.028;2023-04-25T01:01:49;8.00;99.90
3790;DHT22;1910;49.042;9.028;2023-04-25T01:04:15;8.10;99.90
3790;DHT22;1910;49.042;9.028;2023-04-25T01:06:41;8.00;99.90
3790;DHT22;1910;49.042;9.028;2023-04-25T01:11:33;8.20;99.90
3790;DHT22;1910;49.042;9.028;2023-04-25T01:13:58;8.20;99.90
3790;DHT22;1910;49.042;9.028;2023-04-25T01:16:24;8.20;99.90
3790;DHT22;1910;49.042;9.028;2023-04-25T01:26:10;8.30;99.90
3790;DHT22;1910;49.042;9.028;2023-04-25T01:28:37;8.30;99.90
3790;DHT22;1910;49.042;9.028;2023-04-25T01:31:02;8.30;99.90
3790;DHT22;1910;49.042;9.028;2023-04-25T01:33:29;8.30;99.90
3790;DHT22;1910;49.042;9.028;2023-04-25T01:35:55;8.30;99.90
3790;DHT22;1910;49.042;9.028;2023-04-25T01:38:24;8.30;99.90
3790;DHT22;1910;49.042;9.028;2023-04-25T01:40:50;8.30;99.90
3790;DHT22;1910;49.042;9.028;2023-04-25T01:43:16;8.30;99.90
3790;DHT22;1910;49.042;9.028;2023-04-25T01:48:09;8.20;99.90
3790;DHT22;1910;49.042;9.028;2023-04-25T01:50:37;8.20;99.90
3790;DHT22;1910;49.042;9.028;2023-04-25T01:53:04;8.20;99.90
3790;DHT22;1910;49.042;9.028;2023-04-25T01:55:30;8.20;99.90
3790;DHT22;1910;49.042;9.028;2023-04-25T01:57:56;8.20;99.90
3790;DHT22;1910;49.042;9.028;2023-04-25T02:00:22;8.20;99.90
3790;DHT22;1910;49.042;9.028;2023-04-25T02:05:16;8.10;99.90
3790;DHT22;1910;49.042;9.028;2023-04-25T02:07:42;8.10;99.90
3790;DHT22;1910;49.042;9.028;2023-04-25T02:10:08;11.50;99.90
3790;DHT22;1910;49.042;9.028;2023-04-25T02:12:35;8.10;99.90
3790;DHT22;1910;49.042;9.028;2023-04-25T02:41:47;8.20;99.90
3790;DHT22;1910;49.042;9.028;2023-04-25T02:46:39;8.10;99.90
3790;DHT22;1910;49.042;9.028;2023-04-25T02:49:05;8.10;99.90
3790;DHT22;1910;49.042;9.028;2023-04-25T03:03:43;8.10;99.90
3790;DHT22;1910;49.042;9.028;2023-04-25T03:06:08;8.10;99.90
3790;DHT22;1910;49.042;9.028;2023-04-25T03:08:34;8.00;99.90
3790;DHT22;1910;49.042;9.028;2023-04-25T03:11:00;8.00;99.90
3790;DHT22;1910;49.042;9.028;2023-04-25T03:32:55;7.70;99.90
3790;DHT22;1910;49.042;9.028;2023-04-25T03:37:49;7.70;99.90
3790;DHT22;1910;49.042;9.028;2023-04-25T03:40:14;7.70;99.90
3790;DHT22;1910;49.042;9.028;2023-04-25T03:42:40;7.60;99.90
3790;DHT22;1910;49.042;9.028;2023-04-25T03:45:06;7.60;99.90
3790;DHT22;1910;49.042;9.028;2023-04-25T03:47:32;7.60;99.90
3790;DHT22;1910;49.042;9.028;2023-04-25T03:57:15;7.60;99.90
3790;DHT22;1910;49.042;9.028;2023-04-25T03:59:41;7.60;99.90
3790;DHT22;1910;49.042;9.028;2023-04-25T04:04:32;7.60;99.90
3790;DHT22;1910;49.042;9.028;2023-04-25T04:11:50;7.40;99.90
3790;DHT22;1910;49.042;9.028;2023-04-25T04:16:42;7.40;99.90
3790;DHT22;1910;49.042;9.028;2023-04-25T04:23:59;7.30;99.90
3790;DHT22;1910;49.042;9.028;2023-04-25T04:26:25;7.40;99.90
3790;DHT22;1910;49.042;9.028;2023-04-25T04:33:47;7.30;99.90
3790;DHT22;1910;49.042;9.028;2023-04-25T04:36:13;7.30;99.90
3790;DHT22;1910;49.042;9.028;2023-04-25T04:38:39;7.30;99.90
3790;DHT22;1910;49.042;9.028;2023-04-25T04:43:31;7.30;99.90
3790;DHT22;1910;49.042;9.028;2023-04-25T04:46:00;7.30;99.90
3790;DHT22;1910;49.042;9.028;2023-04-25T04:48:25;7.30;99.90
3790;DHT22;1910;49.042;9.028;2023-04-25T04:50:51;7.30;99.90
3790;DHT22;1910;49.042;9.028;2023-04-25T04:55:43;7.30;99.90
3790;DHT22;1910;49.042;9.028;2023-04-25T05:00:34;7.30;99.90
3790;DHT22;1910;49.042;9.028;2023-04-25T05:03:00;7.30;99.90
3790;DHT22;1910;49.042;9.028;2023-04-25T05:10:19;7.30;99.90
3790;DHT22;1910;49.042;9.028;2023-04-25T05:12:44;7.40;99.90
3790;DHT22;1910;49.042;9.028;2023-04-25T05:15:10;7.50;99.90
3790;DHT22;1910;49.042;9.028;2023-04-25T05:17:36;7.60;99.90
3790;DHT22;1910;49.042;9.028;2023-04-25T05:20:02;7.70;99.90
3790;DHT22;1910;49.042;9.028;2023-04-25T05:22:28;7.70;99.90
3790;DHT22;1910;49.042;9.028;2023-04-25T05:24:54;7.80;99.90
3790;DHT22;1910;49.042;9.028;2023-04-25T05:34:38;8.00;99.90
3790;DHT22;1910;49.042;9.028;2023-04-25T05:37:07;8.10;99.90
3790;DHT22;1910;49.042;9.028;2023-04-25T05:49:16;8.60;99.90
3790;DHT22;1910;49.042;9.028;2023-04-25T05:54:08;9.00;99.90
3790;DHT22;1910;49.042;9.028;2023-04-25T06:16:02;14.50;99.90
3790;DHT22;1910;49.042;9.028;2023-04-25T06:45:13;13.10;99.90
3790;DHT22;1910;49.042;9.028;2023-04-25T06:50:05;11.40;99.90
3790;DHT22;1910;49.042;9.028;2023-04-25T06:59:49;10.60;99.90
3790;DHT22;1910;49.042;9.028;2023-04-25T07:04:41;10.30;99.90
3790;DHT22;1910;49.042;9.028;2023-04-25T07:14:27;9.90;99.90
3790;DHT22;1910;49.042;9.028;2023-04-25T07:16:52;9.90;99.90
3790;DHT22;1910;49.042;9.028;2023-04-25T07:26:36;9.30;99.90
3790;DHT22;1910;49.042;9.028;2023-04-25T07:29:01;9.30;99.90
3790;DHT22;1910;49.042;9.028;2023-04-25T07:33:53;9.20;99.90
3790;DHT22;1910;49.042;9.028;2023-04-25T07:36:18;9.30;99.90
3790;DHT22;1910;49.042;9.028;2023-04-25T07:38:44;9.20;99.90
3790;DHT22;1910;49.042;9.028;2023-04-25T07:43:35;9.20;99.90
3790;DHT22;1910;49.042;9.028;2023-04-25T07:46:01;9.40;99.90
3790;DHT22;1910;49.042;9.028;2023-04-25T07:50:53;9.50;99.90
3790;DHT22;1910;49.042;9.028;2023-04-25T07:53:19;9.50;99.90
3790;DHT22;1910;49.042;9.028;2023-04-25T07:58:11;9.50;99.90
3790;DHT22;1910;49.042;9.028;2023-04-25T08:00:37;9.50;99.90
3790;DHT22;1910;49.042;9.028;2023-04-25T08:03:03;9.40;99.90
3790;DHT22;1910;49.042;9.028;2023-04-25T08:05:29;9.50;99.90
3790;DHT22;1910;49.042;9.028;2023-04-25T08:07:54;9.50;99.90
3790;DHT22;1910;49.042;9.028;2023-04-25T08:12:48;9.50;99.90
3790;DHT22;1910;49.042;9.028;2023-04-25T08:15:14;9.60;99.90
3790;DHT22;1910;49.042;9.028;2023-04-25T08:20:06;9.60;99.90
3790;DHT22;1910;49.042;9.028;2023-04-25T08:24:58;9.80;99.90
3790;DHT22;1910;49.042;9.028;2023-04-25T08:37:09;10.60;99.90
3790;DHT22;1910;49.042;9.028;2023-04-25T08:39:38;10.40;99.90
3790;DHT22;1910;49.042;9.028;2023-04-25T08:42:06;10.40;99.90
3790;DHT22;1910;49.042;9.028;2023-04-25T08:44:34;10.20;99.90
3790;DHT22;1910;49.042;9.028;2023-04-25T08:47:02;9.90;99.90
3790;DHT22;1910;49.042;9.028;2023-04-25T08:49:31;11.40;99.90
3790;DHT22;1910;49.042;9.028;2023-04-25T08:52:03;9.70;99.90
3790;DHT22;1910;49.042;9.028;2023-04-25T08:57:00;9.40;99.90
3790;DHT22;1910;49.042;9.028;2023-04-25T09:06:46;9.10;99.90
3790;DHT22;1910;49.042;9.028;2023-04-25T09:09:12;9.10;99.90
3790;DHT22;1910;49.042;9.028;2023-04-25T09:11:38;9.00;99.90
3790;DHT22;1910;49.042;9.028;2023-04-25T09:14:14;8.90;99.90
3790;DHT22;1910;49.042;9.028;2023-04-25T09:17:03;8.80;99.90
3790;DHT22;1910;49.042;9.028;2023-04-25T09:19:37;8.60;99.90
3790;DHT22;1910;49.042;9.028;2023-04-25T09:22:05;8.60;99.90
3790;DHT22;1910;49.042;9.028;2023-04-25T09:24:38;8.70;99.90
3790;DHT22;1910;49.042;9.028;2023-04-25T09:27:12;8.60;99.90
3790;DHT22;1910;49.042;9.028;2023-04-25T09:29:39;8.60;99.90
3790;DHT22;1910;49.042;9.028;2023-04-25T09:32:19;8.60;99.90
3790;DHT22;1910;49.042;9.028;2023-04-25T09:34:47;8.10;99.90
3790;DHT22;1910;49.042;9.028;2023-04-25T09:37:21;8.10;99.90
3790;DHT22;1910;49.042;9.028;2023-04-25T09:39:49;7.60;99.90
3790;DHT22;1910;49.042;9.028;2023-04-25T09:42:15;7.20;99.90
3790;DHT22;1910;49.042;9.028;2023-04-25T09:44:45;7.10;99.90
3790;DHT22;1910;49.042;9.028;2023-04-25T09:47:13;7.20;99.90
3790;DHT22;1910;49.042;9.028;2023-04-25T09:49:40;7.20;99.90
3790;DHT22;1910;49.042;9.028;2023-04-25T09:52:07;7.30;99.90
3790;DHT22;1910;49.042;9.028;2023-04-25T09:54:33;7.40;99.90
3790;DHT22;1910;49.042;9.028;2023-04-25T09:57:21;7.40;99.90
3790;DHT22;1910;49.042;9.028;2023-04-25T09:59:48;7.60;99.90
3790;DHT22;1910;49.042;9.028;2023-04-25T10:02:16;7.80;99.90
3790;DHT22;1910;49.042;9.028;2023-04-25T10:04:42;7.60;99.90
3790;DHT22;1910;49.042;9.028;2023-04-25T10:07:11;7.60;99.90
3790;DHT22;1910;49.042;9.028;2023-04-25T10:09:38;7.70;99.90
3790;DHT22;1910;49.042;9.028;2023-04-25T10:12:07;8.00;99.90
3790;DHT22;1910;49.042;9.028;2023-04-25T10:14:33;8.20;99.90
3790;DHT22;1910;49.042;9.028;2023-04-25T10:17:00;8.40;99.90
3790;DHT22;1910;49.042;9.028;2023-04-25T10:19:26;8.40;99.90
3790;DHT22;1910;49.042;9.028;2023-04-25T10:22:03;8.40;99.90
3790;DHT22;1910;49.042;9.028;2023-04-25T10:24:29;8.10;99.90
3790;DHT22;1910;49.042;9.028;2023-04-25T10:26:56;8.10;99.90
3790;DHT22;1910;49.042;9.028;2023-04-25T10:29:24;9.50;99.90
3790;DHT22;1910;49.042;9.028;2023-04-25T10:31:49;8.00;99.90
3790;DHT22;1910;49.042;9.028;2023-04-25T10:34:16;8.00;99.90
3790;DHT22;1910;49.042;9.028;2023-04-25T10:36:42;7.90;99.90
3790;DHT22;1910;49.042;9.028;2023-04-25T10:39:08;8.00;99.90
3790;DHT22;1910;49.042;9.028;2023-04-25T10:41:48;8.00;99.90
3790;DHT22;1910;49.042;9.028;2023-04-25T10:44:17;7.90;99.90
3790;DHT22;1910;49.042;9.028;2023-04-25T10:46:44;8.10;99.90
3790;DHT22;1910;49.042;9.028;2023-04-25T10:49:11;8.10;99.90
3790;DHT22;1910;49.042;9.028;2023-04-25T10:54:46;8.50;99.90
3790;DHT22;1910;49.042;9.028;2023-04-25T10:57:43;9.30;99.90
3790;DHT22;1910;49.042;9.028;2023-04-25T11:00:15;10.50;99.90
3790;DHT22;1910;49.042;9.028;2023-04-25T11:05:09;11.60;99.90
3790;DHT22;1910;49.042;9.028;2023-04-25T11:07:49;12.10;99.90
3790;DHT22;1910;49.042;9.028;2023-04-25T11:17:34;9.60;99.90
3790;DHT22;1910;49.042;9.028;2023-04-25T11:22:27;8.80;99.90
3790;DHT22;1910;49.042;9.028;2023-04-25T11:27:20;9.20;99.90
3790;DHT22;1910;49.042;9.028;2023-04-25T11:32:15;9.50;99.90
3790;DHT22;1910;49.042;9.028;2023-04-25T11:34:43;9.60;99.90
3790;DHT22;1910;49.042;9.028;2023-04-25T11:37:10;9.70;99.90
3790;DHT22;1910;49.042;9.028;2023-04-25T11:42:04;9.70;99.90
3790;DHT22;1910;49.042;9.028;2023-04-25T11:51:50;10.40;99.90
3790;DHT22;1910;49.042;9.028;2023-04-25T11:56:42;10.50;99.90
3790;DHT22;1910;49.042;9.028;2023-04-25T12:01:47;11.60;99.90
3790;DHT22;1910;49.042;9.028;2023-04-25T12:06:40;11.90;99.90
3790;DHT22;1910;49.042;9.028;2023-04-25T12:09:11;11.30;99.90
3790;DHT22;1910;49.042;9.028;2023-04-25T12:11:45;10.80;99.90
3790;DHT22;1910;49.042;9.028;2023-04-25T12:14:12;11.00;99.90
3790;DHT22;1910;49.042;9.028;2023-04-25T12:16:46;10.80;99.90
3790;DHT22;1910;49.042;9.028;2023-04-25T12:19:19;11.00;99.90
3790;DHT22;1910;49.042;9.028;2023-04-25T12:21:45;10.70;99.90
3790;DHT22;1910;49.042;9.028;2023-04-25T12:24:11;10.70;99.90
3790;DHT22;1910;49.042;9.028;2023-04-25T12:27:01;10.80;99.90
3790;DHT22;1910;49.042;9.028;2023-04-25T12:29:29;10.30;99.90
3790;DHT22;1910;49.042;9.028;2023-04-25T12:31:55;10.10;99.90
3790;DHT22;1910;49.042;9.028;2023-04-25T12:34:22;10.10;99.90
3790;DHT22;1910;49.042;9.028;2023-04-25T12:39:18;10.70;99.90
3790;DHT22;1910;49.042;9.028;2023-04-25T12:41:50;10.60;99.90
3790;DHT22;1910;49.042;9.028;2023-04-25T12:44:17;10.20;99.90
3790;DHT22;1910;49.042;9.028;2023-04-25T12:51:36;10.80;99.90
3790;DHT22;1910;49.042;9.028;2023-04-25T12:54:02;11.20;99.90
3790;DHT22;1910;49.042;9.028;2023-04-25T12:56:29;11.30;99.90
3790;DHT22;1910;49.042;9.028;2023-04-25T13:01:21;11.50;99.90
3790;DHT22;1910;49.042;9.028;2023-04-25T13:03:47;11.60;99.90
3790;DHT22;1910;49.042;9.028;2023-04-25T13:11:06;11.70;99.90
3790;DHT22;1910;49.042;9.028;2023-04-25T13:16:03;12.10;99.90
3790;DHT22;1910;49.042;9.028;2023-04-25T13:28:14;11.10;99.90
3790;DHT22;1910;49.042;9.028;2023-04-25T13:33:06;11.00;99.90
3790;DHT22;1910;49.042;9.028;2023-04-25T13:35:33;11.10;99.90
3790;DHT22;1910;49.042;9.028;2023-04-25T13:37:59;10.70;99.90
3790;DHT22;1910;49.042;9.028;2023-04-25T13:45:18;11.10;99.90
3790;DHT22;1910;49.042;9.028;2023-04-25T13:52:36;11.00;99.90
3790;DHT22;1910;49.042;9.028;2023-04-25T13:57:32;10.90;99.90
3790;DHT22;1910;49.042;9.028;2023-04-25T13:59:57;10.10;99.90
3790;DHT22;1910;49.042;9.028;2023-04-25T14:02:23;10.00;99.90
3790;DHT22;1910;49.042;9.028;2023-04-25T14:04:48;9.80;99.90
3790;DHT22;1910;49.042;9.028;2023-04-25T14:07:14;9.90;99.90
3790;DHT22;1910;49.042;9.028;2023-04-25T14:09:43;10.20;99.90
3790;DHT22;1910;49.042;9.028;2023-04-25T14:12:09;10.50;99.90
3790;DHT22;1910;49.042;9.028;2023-04-25T14:21:53;11.40;99.90
3790;DHT22;1910;49.042;9.028;2023-04-25T14:29:11;10.70;99.90
3790;DHT22;1910;49.042;9.028;2023-04-25T14:36:32;11.80;99.90
3790;DHT22;1910;49.042;9.028;2023-04-25T14:41:24;10.90;99.90
3790;DHT22;1910;49.042;9.028;2023-04-25T14:43:50;11.30;99.90
3790;DHT22;1910;49.042;9.028;2023-04-25T14:46:16;10.80;99.90
3790;DHT22;1910;49.042;9.028;2023-04-25T15:05:44;12.00;99.90
3790;DHT22;1910;49.042;9.028;2023-04-25T15:13:03;12.00;99.90
3790;DHT22;1910;49.042;9.028;2023-04-25T15:17:55;11.60;99.90
3790;DHT22;1910;49.042;9.028;2023-04-25T15:20:21;11.50;99.90
3790;DHT22;1910;49.042;9.028;2023-04-25T15:25:14;11.70;99.90
3790;DHT22;1910;49.042;9.028;2023-04-25T15:30:10;11.30;99.90
3790;DHT22;1910;49.042;9.028;2023-04-25T15:32:42;11.10;99.90
3790;DHT22;1910;49.042;9.028;2023-04-25T15:35:08;11.10;99.90
3790;DHT22;1910;49.042;9.028;2023-04-25T15:37:35;11.20;99.90
3790;DHT22;1910;49.042;9.028;2023-04-25T15:40:04;11.00;99.90
3790;DHT22;1910;49.042;9.028;2023-04-25T15:57:12;11.70;99.90
3790;DHT22;1910;49.042;9.028;2023-04-25T16:07:00;11.50;99.90
3790;DHT22;1910;49.042;9.028;2023-04-25T16:09:27;11.30;99.90
3790;DHT22;1910;49.042;9.028;2023-04-25T16:11:53;11.30;99.90
3790;DHT22;1910;49.042;9.028;2023-04-25T16:16:45;11.10;99.90
3790;DHT22;1910;49.042;9.028;2023-04-25T16:26:29;10.70;99.90
3790;DHT22;1910;49.042;9.028;2023-04-25T16:31:20;10.40;99.90
3790;DHT22;1910;49.042;9.028;2023-04-25T16:38:38;10.20;99.90
3790;DHT22;1910;49.042;9.028;2023-04-25T16:41:04;9.70;99.90
3790;DHT22;1910;49.042;9.028;2023-04-25T16:43:30;9.70;99.90
3790;DHT22;1910;49.042;9.028;2023-04-25T16:45:56;9.50;99.90
3790;DHT22;1910;49.042;9.028;2023-04-25T16:48:22;9.60;99.90
3790;DHT22;1910;49.042;9.028;2023-04-25T16:53:15;9.30;99.90
3790;DHT22;1910;49.042;9.028;2023-04-25T16:55:40;9.30;99.90
3790;DHT22;1910;49.042;9.028;2023-04-25T17:00:33;9.20;99.90
3790;DHT22;1910;49.042;9.028;2023-04-25T17:02:58;9.10;99.90
3790;DHT22;1910;49.042;9.028;2023-04-25T17:05:24;9.10;99.90
3790;DHT22;1910;49.042;9.028;2023-04-25T17:07:50;9.00;99.90
3790;DHT22;1910;49.042;9.028;2023-04-25T17:10:17;9.10;99.90
3790;DHT22;1910;49.042;9.028;2023-04-25T17:12:43;9.10;99.90
3790;DHT22;1910;49.042;9.028;2023-04-25T17:15:09;9.10;99.90
3790;DHT22;1910;49.042;9.028;2023-04-25T17:22:30;8.90;99.90
3790;DHT22;1910;49.042;9.028;2023-04-25T17:27:22;8.50;99.90
3790;DHT22;1910;49.042;9.028;2023-04-25T17:29:47;8.50;99.90
3790;DHT22;1910;49.042;9.028;2023-04-25T17:34:39;8.40;99.90
3790;DHT22;1910;49.042;9.028;2023-04-25T17:37:05;8.40;99.90
3790;DHT22;1910;49.042;9.028;2023-04-25T17:39:31;8.40;99.90
3790;DHT22;1910;49.042;9.028;2023-04-25T17:41:57;8.50;99.90
3790;DHT22;1910;49.042;9.028;2023-04-25T17:44:23;8.50;99.90
3790;DHT22;1910;49.042;9.028;2023-04-25T17:46:49;8.50;99.90
3790;DHT22;1910;49.042;9.028;2023-04-25T17:49:15;8.50;99.90
3790;DHT22;1910;49.042;9.028;2023-04-25T17:51:42;8.40;99.90
3790;DHT22;1910;49.042;9.028;2023-04-25T17:54:07;8.30;99.90
3790;DHT22;1910;49.042;9.028;2023-04-25T17:56:35;8.30;99.90
3790;DHT22;1910;49.042;9.028;2023-04-25T17:59:02;8.30;99.90
3790;DHT22;1910;49.042;9.028;2023-04-25T18:01:29;8.30;99.90
3790;DHT22;1910;49.042;9.028;2023-04-25T18:03:55;8.30;99.90
3790;DHT22;1910;49.042;9.028;2023-04-25T18:11:13;8.30;99.90
3790;DHT22;1910;49.042;9.028;2023-04-25T18:16:06;8.30;99.90
3790;DHT22;1910;49.042;9.028;2023-04-25T18:18:32;8.30;99.90
3790;DHT22;1910;49.042;9.028;2023-04-25T18:21:00;8.30;99.90
3790;DHT22;1910;49.042;9.028;2023-04-25T18:23:28;8.20;99.90
3790;DHT22;1910;49.042;9.028;2023-04-25T18:25:53;8.20;99.90
3790;DHT22;1910;49.042;9.028;2023-04-25T18:30:47;8.20;99.90
3790;DHT22;1910;49.042;9.028;2023-04-25T18:33:14;8.10;99.90
3790;DHT22;1910;49.042;9.028;2023-04-25T18:35:40;9.00;99.90
3790;DHT22;1910;49.042;9.028;2023-04-25T18:38:06;8.10;99.90
3790;DHT22;1910;49.042;9.028;2023-04-25T18:40:31;8.10;99.90
3790;DHT22;1910;49.042;9.028;2023-04-25T18:42:57;8.10;99.90
3790;DHT22;1910;49.042;9.028;2023-04-25T18:45:23;8.00;99.90
3790;DHT22;1910;49.042;9.028;2023-04-25T18:47:49;8.00;99.90
3790;DHT22;1910;49.042;9.028;2023-04-25T18:50:15;8.00;99.90
3790;DHT22;1910;49.042;9.028;2023-04-25T18:52:43;8.00;99.90
3790;DHT22;1910;49.042;9.028;2023-04-25T18:55:09;7.90;99.90
3790;DHT22;1910;49.042;9.028;2023-04-25T18:57:34;7.90;99.90
3790;DHT22;1910;49.042;9.028;2023-04-25T19:02:29;7.90;99.90
3790;DHT22;1910;49.042;9.028;2023-04-25T19:04:55;7.90;99.90
3790;DHT22;1910;49.042;9.028;2023-04-25T19:07:21;8.00;99.90
3790;DHT22;1910;49.042;9.028;2023-04-25T19:09:47;7.90;99.90
3790;DHT22;1910;49.042;9.028;2023-04-25T19:12:13;8.00;99.90
3790;DHT22;1910;49.042;9.028;2023-04-25T19:14:39;9.30;99.90
3790;DHT22;1910;49.042;9.028;2023-04-25T19:21:57;8.00;99.90
3790;DHT22;1910;49.042;9.028;2023-04-25T19:24:23;8.00;99.90
3790;DHT22;1910;49.042;9.028;2023-04-25T19:26:48;8.00;99.90
3790;DHT22;1910;49.042;9.028;2023-04-25T19:29:14;8.00;99.90
3790;DHT22;1910;49.042;9.028;2023-04-25T19:31:43;8.00;99.90
3790;DHT22;1910;49.042;9.028;2023-04-25T19:34:09;8.00;99.90
3790;DHT22;1910;49.042;9.028;2023-04-25T19:36:37;8.00;99.90
3790;DHT22;1910;49.042;9.028;2023-04-25T19:39:03;7.90;99.90
3790;DHT22;1910;49.042;9.028;2023-04-25T19:41:33;7.90;99.90
3790;DHT22;1910;49.042;9.028;2023-04-25T19:44:00;7.90;99.90
3790;DHT22;1910;49.042;9.028;2023-04-25T19:46:26;7.80;99.90
3790;DHT22;1910;49.042;9.028;2023-04-25T19:48:52;7.80;99.90
3790;DHT22;1910;49.042;9.028;2023-04-25T19:51:17;7.80;99.90
3790;DHT22;1910;49.042;9.028;2023-04-25T19:53:43;7.20;99.90
3790;DHT22;1910;49.042;9.028;2023-04-25T19:56:09;7.80;99.90
3790;DHT22;1910;49.042;9.028;2023-04-25T19:58:35;7.80;99.90
3790;DHT22;1910;49.042;9.028;2023-04-25T20:03:27;7.70;99.90
3790;DHT22;1910;49.042;9.028;2023-04-25T20:05:52;7.70;99.90
3790;DHT22;1910;49.042;9.028;2023-04-25T20:10:44;7.70;99.90
3790;DHT22;1910;49.042;9.028;2023-04-25T20:13:09;7.70;99.90
3790;DHT22;1910;49.042;9.028;2023-04-25T20:15:36;7.70;99.90
3790;DHT22;1910;49.042;9.028;2023-04-25T20:18:02;7.70;99.90
3790;DHT22;1910;49.042;9.028;2023-04-25T20:20:27;8.80;99.90
3790;DHT22;1910;49.042;9.028;2023-04-25T20:22:53;7.70;99.90
3790;DHT22;1910;49.042;9.028;2023-04-25T20:25:20;7.60;99.90
3790;DHT22;1910;49.042;9.028;2023-04-25T20:27:45;7.70;99.90
3790;DHT22;1910;49.042;9.028;2023-04-25T20:30:12;7.70;99.90
3790;DHT22;1910;49.042;9.028;2023-04-25T20:32:38;7.70;99.90
3790;DHT22;1910;49.042;9.028;2023-04-25T20:35:05;7.70;99.90
3790;DHT22;1910;49.042;9.028;2023-04-25T20:37:33;7.70;99.90
3790;DHT22;1910;49.042;9.028;2023-04-25T20:40:03;7.70;99.90
3790;DHT22;1910;49.042;9.028;2023-04-25T20:42:29;7.70;99.90
3790;DHT22;1910;49.042;9.028;2023-04-25T20:44:55;7.70;99.90
3790;DHT22;1910;49.042;9.028;2023-04-25T20:47:24;7.70;99.90
3790;DHT22;1910;49.042;9.028;2023-04-25T20:49:49;7.70;99.90
3790;DHT22;1910;49.042;9.028;2023-04-25T20:52:15;7.70;99.90
3790;DHT22;1910;49.042;9.028;2023-04-25T20:54:41;7.70;99.90
3790;DHT22;1910;49.042;9.028;2023-04-25T20:57:07;7.60;99.90
3790;DHT22;1910;49.042;9.028;2023-04-25T20:59:33;7.50;99.90
3790;DHT22;1910;49.042;9.028;2023-04-25T21:01:59;7.40;99.90
3790;DHT22;1910;49.042;9.028;2023-04-25T21:04:25;7.40;99.90
3790;DHT22;1910;49.042;9.028;2023-04-25T21:06:51;7.30;99.90
3790;DHT22;1910;49.042;9.028;2023-04-25T21:09:16;7.30;99.90
3790;DHT22;1910;49.042;9.028;2023-04-25T21:11:43;7.30;99.90
3790;DHT22;1910;49.042;9.028;2023-04-25T21:14:08;7.30;99.90
3790;DHT22;1910;49.042;9.028;2023-04-25T21:16:34;7.30;99.90
3790;DHT22;1910;49.042;9.028;2023-04-25T21:19:03;7.30;99.90
3790;DHT22;1910;49.042;9.028;2023-04-25T21:21:29;7.30;99.90
3790;DHT22;1910;49.042;9.028;2023-04-25T21:23:55;7.30;99.90
3790;DHT22;1910;49.042;9.028;2023-04-25T21:26:21;7.70;99.90
3790;DHT22;1910;49.042;9.028;2023-04-25T21:28:47;7.40;99.90
3790;DHT22;1910;49.042;9.028;2023-04-25T21:31:13;7.40;99.90
3790;DHT22;1910;49.042;9.028;2023-04-25T21:33:39;7.40;99.90
3790;DHT22;1910;49.042;9.028;2023-04-25T21:36:05;7.40;99.90
3790;DHT22;1910;49.042;9.028;2023-04-25T21:40:57;7.50;99.90
3790;DHT22;1910;49.042;9.028;2023-04-25T21:43:23;7.50;99.90
3790;DHT22;1910;49.042;9.028;2023-04-25T21:45:48;7.40;99.90
3790;DHT22;1910;49.042;9.028;2023-04-25T21:48:14;7.40;99.90
3790;DHT22;1910;49.042;9.028;2023-04-25T21:50:39;7.40;99.90
3790;DHT22;1910;49.042;9.028;2023-04-25T21:53:05;7.40;99.90
3790;DHT22;1910;49.042;9.028;2023-04-25T21:55:31;7.40;99.90
3790;DHT22;1910;49.042;9.028;2023-04-25T21:57:56;7.40;99.90
3790;DHT22;1910;49.042;9.028;2023-04-25T22:00:22;7.40;99.90
3790;DHT22;1910;49.042;9.028;2023-04-25T22:02:55;7.40;99.90
3790;DHT22;1910;49.042;9.028;2023-04-25T22:05:22;7.40;99.90
3790;DHT22;1910;49.042;9.028;2023-04-25T22:07:52;7.40;99.90
3790;DHT22;1910;49.042;9.028;2023-04-25T22:10:19;7.40;99.90
3790;DHT22;1910;49.042;9.028;2023-04-25T22:12:45;7.40;99.90
3790;DHT22;1910;49.042;9.028;2023-04-25T22:15:14;7.40;99.90
3790;DHT22;1910;49.042;9.028;2023-04-25T22:17:41;7.30;99.90
3790;DHT22;1910;49.042;9.028;2023-04-25T22:20:08;7.30;99.90
3790;DHT22;1910;49.042;9.028;2023-04-25T22:22:41;7.30;99.90
3790;DHT22;1910;49.042;9.028;2023-04-25T22:25:07;7.30;99.90
3790;DHT22;1910;49.042;9.028;2023-04-25T22:27:33;7.20;99.90
3790;DHT22;1910;49.042;9.028;2023-04-25T22:29:59;7.20;99.90
3790;DHT22;1910;49.042;9.028;2023-04-25T22:32:26;7.20;99.90
3790;DHT22;1910;49.042;9.028;2023-04-25T22:34:51;7.20;99.90
3790;DHT22;1910;49.042;9.028;2023-04-25T22:37:17;7.10;99.90
3790;DHT22;1910;49.042;9.028;2023-04-25T22:42:08;7.10;99.90
3790;DHT22;1910;49.042;9.028;2023-04-25T22:44:34;7.00;99.90
3790;DHT22;1910;49.042;9.028;2023-04-25T22:46:59;7.10;99.90
3790;DHT22;1910;49.042;9.028;2023-04-25T22:51:51;7.00;99.90
3790;DHT22;1910;49.042;9.028;2023-04-25T22:54:20;7.00;99.90
3790;DHT22;1910;49.042;9.028;2023-04-25T22:56:46;7.00;99.90
3790;DHT22;1910;49.042;9.028;2023-04-25T22:59:11;6.90;99.90
3790;DHT22;1910;49.042;9.028;2023-04-25T23:01:37;6.90;99.90
3790;DHT22;1910;49.042;9.028;2023-04-25T23:04:04;6.90;99.90
3790;DHT22;1910;49.042;9.028;2023-04-25T23:06:29;6.80;99.90
3790;DHT22;1910;49.042;9.028;2023-04-25T23:08:55;6.80;99.90
3790;DHT22;1910;49.042;9.028;2023-04-25T23:11:21;6.70;99.90
3790;DHT22;1910;49.042;9.028;2023-04-25T23:13:48;6.70;99.90
3790;DHT22;1910;49.042;9.028;2023-04-25T23:16:13;6.60;99.90
3790;DHT22;1910;49.042;9.028;2023-04-25T23:18:39;6.50;99.90
3790;DHT22;1910;49.042;9.028;2023-04-25T23:21:05;6.40;99.90
3790;DHT22;1910;49.042;9.028;2023-04-25T23:23:36;6.40;99.90
3790;DHT22;1910;49.042;9.028;2023-04-25T23:26:09;6.30;99.90
3790;DHT22;1910;49.042;9.028;2023-04-25T23:28:35;6.30;99.90
3790;DHT22;1910;49.042;9.028;2023-04-25T23:31:05;6.20;99.90
3790;DHT22;1910;49.042;9.028;2023-04-25T23:33:31;6.20;99.90
3790;DHT22;1910;49.042;9.028;2023-04-25T23:35:57;6.20;99.90
3790;DHT22;1910;49.042;9.028;2023-04-25T23:38:22;6.10;99.90
3790;DHT22;1910;49.042;9.028;2023-04-25T23:43:14;6.10;99.90
3790;DHT22;1910;49.042;9.028;2023-04-25T23:45:40;6.10;99.90
3790;DHT22;1910;49.042;9.028;2023-04-25T23:48:08;6.00;99.90
3790;DHT22;1910;49.042;9.028;2023-04-25T23:50:34;6.00;99.90
3790;DHT22;1910;49.042;9.028;2023-04-25T23:53:00;6.10;99.90
3790;DHT22;1910;49.042;9.028;2023-04-25T23:55:26;6.10;99.90
3790;DHT22;1910;49.042;9.028;2023-04-25T23:57:52;6.10;99.90
